Jacksonville, FL

12:03 PM EDT on October 01, 2014 (GMT -0400)
Normandy Heights 32205 | Change Station
CLOSE
Current Station
Personal Weather Station
Location: Jacksonville, FL
Elevation: 20 ft
Nearby Weather Stations

Elev 20 ft 30.30 °N, 81.76 °W | Updated 16 seconds ago

Overcast
Overcast
79.7 °F
Feels Like 83 °F
N
0.0
Wind Variable Wind from SE
Gusts 0.0 mph

Today
High -- | Low -- °F
--% Chance of Precip.
Yesterday
High -- | Low -- °F
Precip. -- in
7:20 AM 7:12 PM
Waxing Crescent, 48% visible
Pressure 29.97 in
Visibility 10.0 miles
Clouds Scattered Clouds 4700 ft
Mostly Cloudy 6500 ft
Heat Index 83 °F
Dew Point 72 °F
Humidity 77%
Rainfall 0.00 in
Snow Depth Not available.
UV 5 out of 12
Pollen 6.70 out of 12
Ozone Good
PM2.5 Good
Flu Activity Not available.
METAR KNIP 011553Z 03008KT 10SM SCT047 BKN065 29/21 A2998 RMK AO2 SLP148 T02890206

More Conditions Fewer Conditions

Pressure 29.97 in
Visibility 10.0 miles
Clouds Scattered Clouds 4700 ft
Mostly Cloudy 6500 ft
Heat Index 83 °F
Dew Point 72 °F
Humidity 77%
Rainfall 0.00 in
Snow Depth Not available.
UV 5 out of 12
Pollen 6.70 out of 12
Ozone Good
PM2.5 Good
Flu Activity Not available.
METAR KNIP 011553Z 03008KT 10SM SCT047 BKN065 29/21 A2998 RMK AO2 SLP148 T02890206

More Conditions Fewer Conditions

10-Day Weather Forecast

Almanac

Astronomy

Oct. 01, 2014 Rise Set
Actual Time 7:20 AM EDT 7:12 PM EDT
Civil Twilight 6:56 AM EDT 7:36 PM EDT
Nautical Twilight 6:28 AM EDT 8:04 PM EDT
Astronomical Twilight 6:00 AM EDT 8:32 PM EDT
Moon 2:02 PM EDT 12:00 AM EDT
Length of Visible Light 12h 39m
Length of Day
11h 51m
Tomorrow will be 1m 49s shorter.
Waxing Crescent, 48% of the Moon is Illuminated
Today
Waxing Crescent
Oct 1
First Quarter
Oct 8
Full
Oct 15
Last Quarter
Oct 23
New

Today's Extremes

State Highs State Lows

Community

WunderPhotos

Upload Photos

1,757,968 photos uploaded!

WunderBlogs® & News

Nearby

Air Quality

  Air Quality AQ Index Pollutant
Yesterday Good
OZONE
Yesterday Good
PM2.5
Current Good
OZONE
Current Good
PM2.5
Wednesday Good
OZONE
Wednesday Good
PM2.5

Snow Depth

Station Depth Elevation
No new snow has been reported.

Earthquake Activity

City Distance Mag. Time & Date
No recent earthquake activity has been reported nearby.
Minimum magnitude displayed is 2.5.

Coastal Water Temperatures

Place Temperature
Mayport (Bar Pilots Dock), FL 79.0 °F
Fernandina Beach, FL 78.1 °F

Nearby Weather Stations